sensor_id;sensor_type;location;lat;lon;timestamp;temperature;humidity
17815;DHT22;9031;50.974;11.330;2024-03-29T00:00:33;8.50;99.90
17815;DHT22;9031;50.974;11.330;2024-03-29T00:02:59;8.50;99.90
17815;DHT22;9031;50.974;11.330;2024-03-29T00:05:25;8.50;99.90
17815;DHT22;9031;50.974;11.330;2024-03-29T00:07:50;8.50;99.90
17815;DHT22;9031;50.974;11.330;2024-03-29T00:10:16;8.50;99.90
17815;DHT22;9031;50.974;11.330;2024-03-29T00:12:41;8.50;99.90
17815;DHT22;9031;50.974;11.330;2024-03-29T00:15:07;8.50;99.90
17815;DHT22;9031;50.974;11.330;2024-03-29T00:17:33;8.50;99.90
17815;DHT22;9031;50.974;11.330;2024-03-29T00:19:58;8.60;99.90
17815;DHT22;9031;50.974;11.330;2024-03-29T00:22:24;8.50;99.90
17815;DHT22;9031;50.974;11.330;2024-03-29T00:24:49;8.50;99.90
17815;DHT22;9031;50.974;11.330;2024-03-29T00:27:14;8.50;99.90
17815;DHT22;9031;50.974;11.330;2024-03-29T00:29:40;8.50;99.90
17815;DHT22;9031;50.974;11.330;2024-03-29T00:32:06;8.40;99.90
17815;DHT22;9031;50.974;11.330;2024-03-29T00:34:32;8.40;99.90
17815;DHT22;9031;50.974;11.330;2024-03-29T00:36:57;8.40;99.90
17815;DHT22;9031;50.974;11.330;2024-03-29T00:39:23;8.40;99.90
17815;DHT22;9031;50.974;11.330;2024-03-29T00:41:48;8.50;99.90
17815;DHT22;9031;50.974;11.330;2024-03-29T00:44:13;8.50;99.90
17815;DHT22;9031;50.974;11.330;2024-03-29T00:46:39;8.50;99.90
17815;DHT22;9031;50.974;11.330;2024-03-29T00:49:04;8.40;99.90
17815;DHT22;9031;50.974;11.330;2024-03-29T00:51:30;8.40;99.90
17815;DHT22;9031;50.974;11.330;2024-03-29T00:53:55;8.30;99.90
17815;DHT22;9031;50.974;11.330;2024-03-29T00:56:21;8.30;99.90
17815;DHT22;9031;50.974;11.330;2024-03-29T00:58:46;8.30;99.90
17815;DHT22;9031;50.974;11.330;2024-03-29T01:01:12;8.30;99.90
17815;DHT22;9031;50.974;11.330;2024-03-29T01:03:37;8.30;99.90
17815;DHT22;9031;50.974;11.330;2024-03-29T01:06:03;8.30;99.90
17815;DHT22;9031;50.974;11.330;2024-03-29T01:08:28;8.30;99.90
17815;DHT22;9031;50.974;11.330;2024-03-29T01:10:54;8.30;99.90
17815;DHT22;9031;50.974;11.330;2024-03-29T01:13:19;8.30;99.90
17815;DHT22;9031;50.974;11.330;2024-03-29T01:15:45;8.20;99.90
17815;DHT22;9031;50.974;11.330;2024-03-29T01:18:10;8.20;99.90
17815;DHT22;9031;50.974;11.330;2024-03-29T01:20:36;8.00;99.90
17815;DHT22;9031;50.974;11.330;2024-03-29T01:23:02;8.00;99.90
17815;DHT22;9031;50.974;11.330;2024-03-29T01:25:28;8.00;99.90
17815;DHT22;9031;50.974;11.330;2024-03-29T01:27:54;8.00;99.90
17815;DHT22;9031;50.974;11.330;2024-03-29T01:30:20;8.10;99.90
17815;DHT22;9031;50.974;11.330;2024-03-29T01:32:47;8.00;99.90
17815;DHT22;9031;50.974;11.330;2024-03-29T01:35:12;8.00;99.90
17815;DHT22;9031;50.974;11.330;2024-03-29T01:37:38;8.10;99.90
17815;DHT22;9031;50.974;11.330;2024-03-29T01:40:04;8.10;99.90
17815;DHT22;9031;50.974;11.330;2024-03-29T01:42:30;8.10;99.90
17815;DHT22;9031;50.974;11.330;2024-03-29T01:44:56;8.00;99.90
17815;DHT22;9031;50.974;11.330;2024-03-29T01:47:21;7.80;99.90
17815;DHT22;9031;50.974;11.330;2024-03-29T01:49:47;7.80;99.90
17815;DHT22;9031;50.974;11.330;2024-03-29T01:52:14;7.80;99.90
17815;DHT22;9031;50.974;11.330;2024-03-29T01:54:42;7.70;99.90
17815;DHT22;9031;50.974;11.330;2024-03-29T01:57:09;7.70;99.90
17815;DHT22;9031;50.974;11.330;2024-03-29T01:59:35;7.70;99.90
17815;DHT22;9031;50.974;11.330;2024-03-29T02:02:01;7.70;99.90
17815;DHT22;9031;50.974;11.330;2024-03-29T02:04:26;7.70;99.90
17815;DHT22;9031;50.974;11.330;2024-03-29T02:06:52;7.70;99.90
17815;DHT22;9031;50.974;11.330;2024-03-29T02:09:18;7.70;99.90
17815;DHT22;9031;50.974;11.330;2024-03-29T02:11:43;7.80;99.90
17815;DHT22;9031;50.974;11.330;2024-03-29T02:14:09;7.80;99.90
17815;DHT22;9031;50.974;11.330;2024-03-29T02:16:34;7.90;99.90
17815;DHT22;9031;50.974;11.330;2024-03-29T02:19:00;7.80;99.90
17815;DHT22;9031;50.974;11.330;2024-03-29T02:21:25;7.70;99.90
17815;DHT22;9031;50.974;11.330;2024-03-29T02:24:06;7.70;99.90
17815;DHT22;9031;50.974;11.330;2024-03-29T02:26:31;7.70;99.90
17815;DHT22;9031;50.974;11.330;2024-03-29T02:29:01;7.80;99.90
17815;DHT22;9031;50.974;11.330;2024-03-29T02:31:26;7.80;99.90
17815;DHT22;9031;50.974;11.330;2024-03-29T02:33:52;7.70;99.90
17815;DHT22;9031;50.974;11.330;2024-03-29T02:36:17;7.80;99.90
17815;DHT22;9031;50.974;11.330;2024-03-29T02:38:43;7.80;99.90
17815;DHT22;9031;50.974;11.330;2024-03-29T02:41:08;7.80;99.90
17815;DHT22;9031;50.974;11.330;2024-03-29T02:43:34;7.90;99.90
17815;DHT22;9031;50.974;11.330;2024-03-29T02:45:59;7.90;99.90
17815;DHT22;9031;50.974;11.330;2024-03-29T02:48:25;7.90;99.90
17815;DHT22;9031;50.974;11.330;2024-03-29T02:50:50;8.00;99.90
17815;DHT22;9031;50.974;11.330;2024-03-29T02:53:16;8.00;99.90
17815;DHT22;9031;50.974;11.330;2024-03-29T02:55:41;8.00;99.90
17815;DHT22;9031;50.974;11.330;2024-03-29T02:58:07;8.10;99.90
17815;DHT22;9031;50.974;11.330;2024-03-29T03:00:33;8.10;99.90
17815;DHT22;9031;50.974;11.330;2024-03-29T03:02:59;8.10;99.90
17815;DHT22;9031;50.974;11.330;2024-03-29T03:05:24;8.20;99.90
17815;DHT22;9031;50.974;11.330;2024-03-29T03:07:50;8.30;99.90
17815;DHT22;9031;50.974;11.330;2024-03-29T03:10:34;8.40;99.90
17815;DHT22;9031;50.974;11.330;2024-03-29T03:13:18;8.40;99.90
17815;DHT22;9031;50.974;11.330;2024-03-29T03:15:43;8.50;99.90
17815;DHT22;9031;50.974;11.330;2024-03-29T03:18:09;8.50;99.90
17815;DHT22;9031;50.974;11.330;2024-03-29T03:20:34;8.50;99.90
17815;DHT22;9031;50.974;11.330;2024-03-29T03:23:00;8.50;99.90
17815;DHT22;9031;50.974;11.330;2024-03-29T03:25:27;8.50;99.90
17815;DHT22;9031;50.974;11.330;2024-03-29T03:27:53;8.50;99.90
17815;DHT22;9031;50.974;11.330;2024-03-29T03:30:18;8.50;99.90
17815;DHT22;9031;50.974;11.330;2024-03-29T03:32:44;8.50;99.90
17815;DHT22;9031;50.974;11.330;2024-03-29T03:35:10;8.50;99.90
17815;DHT22;9031;50.974;11.330;2024-03-29T03:37:35;8.50;99.90
17815;DHT22;9031;50.974;11.330;2024-03-29T03:40:01;8.50;99.90
17815;DHT22;9031;50.974;11.330;2024-03-29T03:42:26;8.50;99.90
17815;DHT22;9031;50.974;11.330;2024-03-29T03:44:52;8.40;99.90
17815;DHT22;9031;50.974;11.330;2024-03-29T03:47:17;8.50;99.90
17815;DHT22;9031;50.974;11.330;2024-03-29T03:49:42;8.50;99.90
17815;DHT22;9031;50.974;11.330;2024-03-29T03:52:08;8.50;99.90
17815;DHT22;9031;50.974;11.330;2024-03-29T03:54:33;8.50;99.90
17815;DHT22;9031;50.974;11.330;2024-03-29T03:57:00;8.40;99.90
17815;DHT22;9031;50.974;11.330;2024-03-29T03:59:25;8.40;99.90
17815;DHT22;9031;50.974;11.330;2024-03-29T04:01:50;8.40;99.90
17815;DHT22;9031;50.974;11.330;2024-03-29T04:04:17;8.40;99.90
17815;DHT22;9031;50.974;11.330;2024-03-29T04:06:43;8.40;99.90
17815;DHT22;9031;50.974;11.330;2024-03-29T04:09:08;8.50;99.90
17815;DHT22;9031;50.974;11.330;2024-03-29T04:11:34;8.60;99.90
17815;DHT22;9031;50.974;11.330;2024-03-29T04:13:59;8.70;99.90
17815;DHT22;9031;50.974;11.330;2024-03-29T04:16:25;8.80;99.90
17815;DHT22;9031;50.974;11.330;2024-03-29T04:18:50;8.80;99.90
17815;DHT22;9031;50.974;11.330;2024-03-29T04:21:16;8.60;99.90
17815;DHT22;9031;50.974;11.330;2024-03-29T04:23:41;8.60;99.90
17815;DHT22;9031;50.974;11.330;2024-03-29T04:26:07;8.60;99.90
17815;DHT22;9031;50.974;11.330;2024-03-29T04:28:32;8.70;99.90
17815;DHT22;9031;50.974;11.330;2024-03-29T04:30:59;8.70;99.90
17815;DHT22;9031;50.974;11.330;2024-03-29T04:33:26;8.80;99.90
17815;DHT22;9031;50.974;11.330;2024-03-29T04:36:03;8.80;99.90
17815;DHT22;9031;50.974;11.330;2024-03-29T04:38:29;8.80;99.90
17815;DHT22;9031;50.974;11.330;2024-03-29T04:40:56;8.80;99.90
17815;DHT22;9031;50.974;11.330;2024-03-29T04:43:26;8.80;99.90
17815;DHT22;9031;50.974;11.330;2024-03-29T04:46:11;8.80;99.90
17815;DHT22;9031;50.974;11.330;2024-03-29T04:48:37;8.80;99.90
17815;DHT22;9031;50.974;11.330;2024-03-29T04:51:04;8.80;99.90
17815;DHT22;9031;50.974;11.330;2024-03-29T04:53:29;8.70;99.90
17815;DHT22;9031;50.974;11.330;2024-03-29T04:55:56;8.70;99.90
17815;DHT22;9031;50.974;11.330;2024-03-29T04:58:25;8.80;99.90
17815;DHT22;9031;50.974;11.330;2024-03-29T05:00:51;8.90;99.90
17815;DHT22;9031;50.974;11.330;2024-03-29T05:03:18;8.90;99.90
17815;DHT22;9031;50.974;11.330;2024-03-29T05:05:45;9.00;99.90
17815;DHT22;9031;50.974;11.330;2024-03-29T05:08:11;9.00;99.90
17815;DHT22;9031;50.974;11.330;2024-03-29T05:10:36;9.00;99.90
17815;DHT22;9031;50.974;11.330;2024-03-29T05:13:02;9.00;99.90
17815;DHT22;9031;50.974;11.330;2024-03-29T05:15:27;9.10;99.90
17815;DHT22;9031;50.974;11.330;2024-03-29T05:17:53;9.10;99.90
17815;DHT22;9031;50.974;11.330;2024-03-29T05:20:18;9.20;99.90
17815;DHT22;9031;50.974;11.330;2024-03-29T05:22:44;9.20;99.90
17815;DHT22;9031;50.974;11.330;2024-03-29T05:25:10;9.20;99.90
17815;DHT22;9031;50.974;11.330;2024-03-29T05:27:35;9.20;99.90
17815;DHT22;9031;50.974;11.330;2024-03-29T05:30:01;9.30;99.90
17815;DHT22;9031;50.974;11.330;2024-03-29T05:32:28;9.30;99.90
17815;DHT22;9031;50.974;11.330;2024-03-29T05:34:54;9.40;99.90
17815;DHT22;9031;50.974;11.330;2024-03-29T05:37:19;9.30;99.90
17815;DHT22;9031;50.974;11.330;2024-03-29T05:39:45;9.30;99.90
17815;DHT22;9031;50.974;11.330;2024-03-29T05:42:11;9.40;99.90
17815;DHT22;9031;50.974;11.330;2024-03-29T05:44:37;9.40;99.90
17815;DHT22;9031;50.974;11.330;2024-03-29T05:47:03;9.40;99.90
17815;DHT22;9031;50.974;11.330;2024-03-29T05:49:30;9.50;99.90
17815;DHT22;9031;50.974;11.330;2024-03-29T05:51:56;9.50;99.90
17815;DHT22;9031;50.974;11.330;2024-03-29T05:54:21;9.50;99.90
17815;DHT22;9031;50.974;11.330;2024-03-29T05:56:48;9.50;99.90
17815;DHT22;9031;50.974;11.330;2024-03-29T05:59:13;9.50;99.90
17815;DHT22;9031;50.974;11.330;2024-03-29T06:01:39;9.60;99.90
17815;DHT22;9031;50.974;11.330;2024-03-29T06:04:04;9.70;99.90
17815;DHT22;9031;50.974;11.330;2024-03-29T06:06:39;9.70;99.90
17815;DHT22;9031;50.974;11.330;2024-03-29T06:09:04;9.80;99.90
17815;DHT22;9031;50.974;11.330;2024-03-29T06:11:30;9.70;99.90
17815;DHT22;9031;50.974;11.330;2024-03-29T06:13:55;9.70;99.90
17815;DHT22;9031;50.974;11.330;2024-03-29T06:16:28;9.60;99.90
17815;DHT22;9031;50.974;11.330;2024-03-29T06:19:12;9.50;99.90
17815;DHT22;9031;50.974;11.330;2024-03-29T06:21:38;9.10;99.90
17815;DHT22;9031;50.974;11.330;2024-03-29T06:24:11;9.10;99.90
17815;DHT22;9031;50.974;11.330;2024-03-29T06:26:38;9.40;99.90
17815;DHT22;9031;50.974;11.330;2024-03-29T06:29:03;9.60;99.90
17815;DHT22;9031;50.974;11.330;2024-03-29T06:31:29;9.70;99.90
17815;DHT22;9031;50.974;11.330;2024-03-29T06:33:55;9.80;99.90
17815;DHT22;9031;50.974;11.330;2024-03-29T06:36:20;9.70;99.90
17815;DHT22;9031;50.974;11.330;2024-03-29T06:38:46;9.50;99.90
17815;DHT22;9031;50.974;11.330;2024-03-29T06:41:12;9.60;99.90
17815;DHT22;9031;50.974;11.330;2024-03-29T06:43:37;9.60;99.90
17815;DHT22;9031;50.974;11.330;2024-03-29T06:46:03;9.70;99.90
17815;DHT22;9031;50.974;11.330;2024-03-29T06:48:29;9.60;99.90
17815;DHT22;9031;50.974;11.330;2024-03-29T06:50:58;9.60;99.90
17815;DHT22;9031;50.974;11.330;2024-03-29T06:53:24;9.60;99.90
17815;DHT22;9031;50.974;11.330;2024-03-29T06:55:49;9.50;99.90
17815;DHT22;9031;50.974;11.330;2024-03-29T06:58:15;9.40;99.90
17815;DHT22;9031;50.974;11.330;2024-03-29T07:00:43;9.50;99.90
17815;DHT22;9031;50.974;11.330;2024-03-29T07:03:08;9.60;99.90
17815;DHT22;9031;50.974;11.330;2024-03-29T07:05:34;9.80;99.90
17815;DHT22;9031;50.974;11.330;2024-03-29T07:07:59;9.80;99.90
17815;DHT22;9031;50.974;11.330;2024-03-29T07:10:26;10.00;99.90
17815;DHT22;9031;50.974;11.330;2024-03-29T07:12:52;9.90;99.90
17815;DHT22;9031;50.974;11.330;2024-03-29T07:15:17;10.00;99.90
17815;DHT22;9031;50.974;11.330;2024-03-29T07:17:43;9.80;99.90
17815;DHT22;9031;50.974;11.330;2024-03-29T07:20:09;9.70;99.90
17815;DHT22;9031;50.974;11.330;2024-03-29T07:22:35;9.50;99.90
17815;DHT22;9031;50.974;11.330;2024-03-29T07:25:00;9.80;99.90
17815;DHT22;9031;50.974;11.330;2024-03-29T07:27:26;10.10;99.90
17815;DHT22;9031;50.974;11.330;2024-03-29T07:29:53;10.20;99.90
17815;DHT22;9031;50.974;11.330;2024-03-29T07:32:18;10.40;99.90
17815;DHT22;9031;50.974;11.330;2024-03-29T07:34:44;10.50;99.90
17815;DHT22;9031;50.974;11.330;2024-03-29T07:37:09;10.60;99.90
17815;DHT22;9031;50.974;11.330;2024-03-29T07:39:40;10.70;99.90
17815;DHT22;9031;50.974;11.330;2024-03-29T07:42:06;10.60;99.90
17815;DHT22;9031;50.974;11.330;2024-03-29T07:44:31;10.70;99.90
17815;DHT22;9031;50.974;11.330;2024-03-29T07:46:57;10.80;99.90
17815;DHT22;9031;50.974;11.330;2024-03-29T07:49:22;10.70;99.90
17815;DHT22;9031;50.974;11.330;2024-03-29T07:51:48;10.60;99.90
17815;DHT22;9031;50.974;11.330;2024-03-29T07:54:13;10.70;99.90
17815;DHT22;9031;50.974;11.330;2024-03-29T07:56:39;10.90;99.90
17815;DHT22;9031;50.974;11.330;2024-03-29T07:59:04;11.00;99.90
17815;DHT22;9031;50.974;11.330;2024-03-29T08:01:30;11.10;99.90
17815;DHT22;9031;50.974;11.330;2024-03-29T08:03:55;11.20;99.90
17815;DHT22;9031;50.974;11.330;2024-03-29T08:06:21;11.20;99.90
17815;DHT22;9031;50.974;11.330;2024-03-29T08:08:49;11.20;99.90
17815;DHT22;9031;50.974;11.330;2024-03-29T08:11:15;11.10;99.90
17815;DHT22;9031;50.974;11.330;2024-03-29T08:13:40;11.20;99.90
17815;DHT22;9031;50.974;11.330;2024-03-29T08:16:06;11.30;99.90
17815;DHT22;9031;50.974;11.330;2024-03-29T08:18:32;11.60;99.90
17815;DHT22;9031;50.974;11.330;2024-03-29T08:20:59;11.90;99.90
17815;DHT22;9031;50.974;11.330;2024-03-29T08:23:25;12.00;99.90
17815;DHT22;9031;50.974;11.330;2024-03-29T08:25:51;12.00;99.90
17815;DHT22;9031;50.974;11.330;2024-03-29T08:28:18;12.10;99.90
17815;DHT22;9031;50.974;11.330;2024-03-29T08:30:44;12.10;99.90
17815;DHT22;9031;50.974;11.330;2024-03-29T08:33:09;12.10;99.90
17815;DHT22;9031;50.974;11.330;2024-03-29T08:35:35;12.20;99.90
17815;DHT22;9031;50.974;11.330;2024-03-29T08:38:01;12.30;99.90
17815;DHT22;9031;50.974;11.330;2024-03-29T08:40:28;12.40;99.90
17815;DHT22;9031;50.974;11.330;2024-03-29T08:42:55;12.50;99.90
17815;DHT22;9031;50.974;11.330;2024-03-29T08:45:21;12.70;99.90
17815;DHT22;9031;50.974;11.330;2024-03-29T08:47:46;12.90;99.90
17815;DHT22;9031;50.974;11.330;2024-03-29T08:50:12;13.20;99.90
17815;DHT22;9031;50.974;11.330;2024-03-29T08:52:39;13.40;99.90
17815;DHT22;9031;50.974;11.330;2024-03-29T08:55:05;13.50;99.90
17815;DHT22;9031;50.974;11.330;2024-03-29T08:57:31;13.80;99.90
17815;DHT22;9031;50.974;11.330;2024-03-29T08:59:56;14.00;99.90
17815;DHT22;9031;50.974;11.330;2024-03-29T09:02:22;14.30;99.90
17815;DHT22;9031;50.974;11.330;2024-03-29T09:04:47;14.50;99.80
17815;DHT22;9031;50.974;11.330;2024-03-29T09:07:13;14.70;99.50
17815;DHT22;9031;50.974;11.330;2024-03-29T09:09:39;15.00;99.30
17815;DHT22;9031;50.974;11.330;2024-03-29T09:12:09;15.20;99.10
17815;DHT22;9031;50.974;11.330;2024-03-29T09:14:35;15.30;98.20
17815;DHT22;9031;50.974;11.330;2024-03-29T09:17:00;15.10;98.60
17815;DHT22;9031;50.974;11.330;2024-03-29T09:19:27;15.30;98.60
17815;DHT22;9031;50.974;11.330;2024-03-29T09:21:53;15.30;98.00
17815;DHT22;9031;50.974;11.330;2024-03-29T09:24:18;15.20;98.30
17815;DHT22;9031;50.974;11.330;2024-03-29T09:26:48;15.00;98.50
17815;DHT22;9031;50.974;11.330;2024-03-29T09:29:14;15.30;98.00
17815;DHT22;9031;50.974;11.330;2024-03-29T09:31:41;15.30;98.00
17815;DHT22;9031;50.974;11.330;2024-03-29T09:34:06;15.50;97.70
17815;DHT22;9031;50.974;11.330;2024-03-29T09:36:32;15.40;97.60
17815;DHT22;9031;50.974;11.330;2024-03-29T09:38:57;15.60;97.50
17815;DHT22;9031;50.974;11.330;2024-03-29T09:41:25;15.70;97.80
17815;DHT22;9031;50.974;11.330;2024-03-29T09:43:52;15.70;96.90
17815;DHT22;9031;50.974;11.330;2024-03-29T09:46:20;15.80;97.10
17815;DHT22;9031;50.974;11.330;2024-03-29T09:48:47;15.90;97.20
17815;DHT22;9031;50.974;11.330;2024-03-29T09:51:14;15.80;96.80
17815;DHT22;9031;50.974;11.330;2024-03-29T09:53:41;15.60;96.60
17815;DHT22;9031;50.974;11.330;2024-03-29T09:56:07;15.60;97.20
17815;DHT22;9031;50.974;11.330;2024-03-29T09:58:34;15.10;98.60
17815;DHT22;9031;50.974;11.330;2024-03-29T10:01:02;14.40;99.10
17815;DHT22;9031;50.974;11.330;2024-03-29T10:03:29;14.00;99.90
17815;DHT22;9031;50.974;11.330;2024-03-29T10:05:59;13.90;99.90
17815;DHT22;9031;50.974;11.330;2024-03-29T10:08:26;13.90;99.70
17815;DHT22;9031;50.974;11.330;2024-03-29T10:10:55;14.40;98.20
17815;DHT22;9031;50.974;11.330;2024-03-29T10:13:21;14.70;97.70
17815;DHT22;9031;50.974;11.330;2024-03-29T10:15:49;14.70;97.30
17815;DHT22;9031;50.974;11.330;2024-03-29T10:18:16;14.30;95.90
17815;DHT22;9031;50.974;11.330;2024-03-29T10:20:43;14.20;96.00
17815;DHT22;9031;50.974;11.330;2024-03-29T10:23:09;14.50;95.50
17815;DHT22;9031;50.974;11.330;2024-03-29T10:25:34;14.10;95.20
17815;DHT22;9031;50.974;11.330;2024-03-29T10:28:00;13.90;95.70
17815;DHT22;9031;50.974;11.330;2024-03-29T10:30:28;14.00;95.20
17815;DHT22;9031;50.974;11.330;2024-03-29T10:32:58;14.00;94.60
17815;DHT22;9031;50.974;11.330;2024-03-29T10:35:26;14.20;94.90
17815;DHT22;9031;50.974;11.330;2024-03-29T10:37:53;14.50;94.90
17815;DHT22;9031;50.974;11.330;2024-03-29T10:40:21;14.60;94.60
17815;DHT22;9031;50.974;11.330;2024-03-29T10:42:47;14.80;94.50
17815;DHT22;9031;50.974;11.330;2024-03-29T10:45:14;14.70;94.40
17815;DHT22;9031;50.974;11.330;2024-03-29T10:47:41;14.80;94.60
17815;DHT22;9031;50.974;11.330;2024-03-29T10:50:12;15.00;94.70
17815;DHT22;9031;50.974;11.330;2024-03-29T10:52:39;15.00;94.30
17815;DHT22;9031;50.974;11.330;2024-03-29T10:55:09;15.00;94.00
17815;DHT22;9031;50.974;11.330;2024-03-29T10:57:40;15.00;94.00
17815;DHT22;9031;50.974;11.330;2024-03-29T11:00:14;14.90;94.00
17815;DHT22;9031;50.974;11.330;2024-03-29T11:03:08;14.80;94.50
17815;DHT22;9031;50.974;11.330;2024-03-29T11:05:35;14.70;94.90
17815;DHT22;9031;50.974;11.330;2024-03-29T11:08:03;14.30;95.70
17815;DHT22;9031;50.974;11.330;2024-03-29T11:10:42;14.20;96.10
17815;DHT22;9031;50.974;11.330;2024-03-29T11:15:49;14.10;98.00
17815;DHT22;9031;50.974;11.330;2024-03-29T11:18:16;13.90;99.00
17815;DHT22;9031;50.974;11.330;2024-03-29T11:20:45;13.70;99.30
17815;DHT22;9031;50.974;11.330;2024-03-29T11:23:17;13.70;99.80
17815;DHT22;9031;50.974;11.330;2024-03-29T11:25:44;13.80;99.90
17815;DHT22;9031;50.974;11.330;2024-03-29T11:28:15;13.60;99.90
17815;DHT22;9031;50.974;11.330;2024-03-29T11:30:47;13.70;99.90
17815;DHT22;9031;50.974;11.330;2024-03-29T11:33:32;13.40;99.90
17815;DHT22;9031;50.974;11.330;2024-03-29T11:35:59;13.20;99.90
17815;DHT22;9031;50.974;11.330;2024-03-29T11:38:34;13.10;99.90
17815;DHT22;9031;50.974;11.330;2024-03-29T11:41:13;13.10;99.90
17815;DHT22;9031;50.974;11.330;2024-03-29T11:43:39;12.90;99.90
17815;DHT22;9031;50.974;11.330;2024-03-29T11:46:12;12.90;99.90
17815;DHT22;9031;50.974;11.330;2024-03-29T11:48:38;12.90;99.90
17815;DHT22;9031;50.974;11.330;2024-03-29T11:51:08;12.80;99.90
17815;DHT22;9031;50.974;11.330;2024-03-29T11:53:35;12.60;99.90
17815;DHT22;9031;50.974;11.330;2024-03-29T11:56:03;12.50;99.90
17815;DHT22;9031;50.974;11.330;2024-03-29T11:58:30;12.60;99.90
17815;DHT22;9031;50.974;11.330;2024-03-29T12:00:57;12.60;99.90
17815;DHT22;9031;50.974;11.330;2024-03-29T12:03:25;12.70;99.90
17815;DHT22;9031;50.974;11.330;2024-03-29T12:05:51;12.50;99.90
17815;DHT22;9031;50.974;11.330;2024-03-29T12:08:21;12.40;99.90
17815;DHT22;9031;50.974;11.330;2024-03-29T12:10:47;12.40;99.90
17815;DHT22;9031;50.974;11.330;2024-03-29T12:13:16;12.70;99.90
17815;DHT22;9031;50.974;11.330;2024-03-29T12:15:41;12.90;99.90
17815;DHT22;9031;50.974;11.330;2024-03-29T12:18:07;13.00;99.90
17815;DHT22;9031;50.974;11.330;2024-03-29T12:20:33;12.70;99.90
17815;DHT22;9031;50.974;11.330;2024-03-29T12:23:03;12.60;99.90
17815;DHT22;9031;50.974;11.330;2024-03-29T12:25:30;12.50;99.90
17815;DHT22;9031;50.974;11.330;2024-03-29T12:27:57;12.90;99.90
17815;DHT22;9031;50.974;11.330;2024-03-29T12:30:23;13.20;99.90
17815;DHT22;9031;50.974;11.330;2024-03-29T12:32:48;13.40;99.90
17815;DHT22;9031;50.974;11.330;2024-03-29T12:35:15;13.10;99.90
17815;DHT22;9031;50.974;11.330;2024-03-29T12:37:49;12.90;99.90
17815;DHT22;9031;50.974;11.330;2024-03-29T12:40:16;12.90;99.90
17815;DHT22;9031;50.974;11.330;2024-03-29T12:42:47;13.00;99.90
17815;DHT22;9031;50.974;11.330;2024-03-29T12:45:13;13.10;99.90
17815;DHT22;9031;50.974;11.330;2024-03-29T12:47:38;13.40;99.90
17815;DHT22;9031;50.974;11.330;2024-03-29T12:50:04;13.60;99.90
17815;DHT22;9031;50.974;11.330;2024-03-29T12:52:39;13.80;99.90
17815;DHT22;9031;50.974;11.330;2024-03-29T12:55:05;14.10;99.90
17815;DHT22;9031;50.974;11.330;2024-03-29T12:57:33;14.30;99.90
17815;DHT22;9031;50.974;11.330;2024-03-29T12:59:59;14.10;99.90
17815;DHT22;9031;50.974;11.330;2024-03-29T13:02:24;14.10;99.90
17815;DHT22;9031;50.974;11.330;2024-03-29T13:04:50;14.20;99.90
17815;DHT22;9031;50.974;11.330;2024-03-29T13:07:16;14.10;99.90
17815;DHT22;9031;50.974;11.330;2024-03-29T13:09:42;14.10;99.90
17815;DHT22;9031;50.974;11.330;2024-03-29T13:12:07;14.20;99.90
17815;DHT22;9031;50.974;11.330;2024-03-29T13:14:33;15.00;99.90
17815;DHT22;9031;50.974;11.330;2024-03-29T13:16:59;15.50;99.90
17815;DHT22;9031;50.974;11.330;2024-03-29T13:19:25;15.60;99.90
17815;DHT22;9031;50.974;11.330;2024-03-29T13:21:50;16.50;99.90
17815;DHT22;9031;50.974;11.330;2024-03-29T13:24:16;17.60;99.90
17815;DHT22;9031;50.974;11.330;2024-03-29T13:26:41;17.20;99.90
17815;DHT22;9031;50.974;11.330;2024-03-29T13:29:06;18.20;99.90
17815;DHT22;9031;50.974;11.330;2024-03-29T13:31:32;17.90;99.90
17815;DHT22;9031;50.974;11.330;2024-03-29T13:33:58;18.50;99.90
17815;DHT22;9031;50.974;11.330;2024-03-29T13:36:38;19.80;99.70
17815;DHT22;9031;50.974;11.330;2024-03-29T13:39:04;18.80;99.90
17815;DHT22;9031;50.974;11.330;2024-03-29T13:41:30;18.40;99.90
17815;DHT22;9031;50.974;11.330;2024-03-29T13:43:55;17.90;99.90
17815;DHT22;9031;50.974;11.330;2024-03-29T13:46:21;17.20;99.90
17815;DHT22;9031;50.974;11.330;2024-03-29T13:48:46;16.80;99.90
17815;DHT22;9031;50.974;11.330;2024-03-29T13:51:12;16.70;99.90
17815;DHT22;9031;50.974;11.330;2024-03-29T13:53:40;16.60;99.90
17815;DHT22;9031;50.974;11.330;2024-03-29T13:56:06;16.30;99.90
17815;DHT22;9031;50.974;11.330;2024-03-29T13:58:31;16.00;99.90
17815;DHT22;9031;50.974;11.330;2024-03-29T14:00:57;15.60;99.90
17815;DHT22;9031;50.974;11.330;2024-03-29T14:03:25;15.40;99.90
17815;DHT22;9031;50.974;11.330;2024-03-29T14:05:51;15.40;99.90
17815;DHT22;9031;50.974;11.330;2024-03-29T14:08:17;15.00;99.90
17815;DHT22;9031;50.974;11.330;2024-03-29T14:10:42;15.00;99.90
17815;DHT22;9031;50.974;11.330;2024-03-29T14:13:08;15.10;99.90
17815;DHT22;9031;50.974;11.330;2024-03-29T14:15:34;15.50;99.90
17815;DHT22;9031;50.974;11.330;2024-03-29T14:18:00;15.60;99.90
17815;DHT22;9031;50.974;11.330;2024-03-29T14:20:25;15.90;99.90
17815;DHT22;9031;50.974;11.330;2024-03-29T14:22:51;16.00;99.90
17815;DHT22;9031;50.974;11.330;2024-03-29T14:25:20;15.90;99.90
17815;DHT22;9031;50.974;11.330;2024-03-29T14:27:45;15.70;99.90
17815;DHT22;9031;50.974;11.330;2024-03-29T14:30:22;15.60;99.90
17815;DHT22;9031;50.974;11.330;2024-03-29T14:32:51;15.70;99.90
17815;DHT22;9031;50.974;11.330;2024-03-29T14:35:17;15.80;99.90
17815;DHT22;9031;50.974;11.330;2024-03-29T14:37:43;15.70;99.90
17815;DHT22;9031;50.974;11.330;2024-03-29T14:40:10;15.50;99.90
17815;DHT22;9031;50.974;11.330;2024-03-29T14:42:38;15.30;99.90
17815;DHT22;9031;50.974;11.330;2024-03-29T14:45:04;15.30;99.90
17815;DHT22;9031;50.974;11.330;2024-03-29T14:47:30;15.20;99.90
17815;DHT22;9031;50.974;11.330;2024-03-29T14:49:55;15.10;99.90
17815;DHT22;9031;50.974;11.330;2024-03-29T14:52:21;15.10;99.90
17815;DHT22;9031;50.974;11.330;2024-03-29T14:54:46;14.90;99.90
17815;DHT22;9031;50.974;11.330;2024-03-29T14:57:12;15.00;99.90
17815;DHT22;9031;50.974;11.330;2024-03-29T14:59:40;15.20;99.90
17815;DHT22;9031;50.974;11.330;2024-03-29T15:02:06;15.50;99.90
17815;DHT22;9031;50.974;11.330;2024-03-29T15:04:32;15.70;99.90
17815;DHT22;9031;50.974;11.330;2024-03-29T15:06:57;15.80;99.90
17815;DHT22;9031;50.974;11.330;2024-03-29T15:09:23;16.20;99.90
17815;DHT22;9031;50.974;11.330;2024-03-29T15:11:48;16.10;99.90
17815;DHT22;9031;50.974;11.330;2024-03-29T15:14:14;16.20;99.90
17815;DHT22;9031;50.974;11.330;2024-03-29T15:16:39;16.50;99.90
17815;DHT22;9031;50.974;11.330;2024-03-29T15:19:05;16.20;99.90
17815;DHT22;9031;50.974;11.330;2024-03-29T15:21:30;16.10;99.90
17815;DHT22;9031;50.974;11.330;2024-03-29T15:23:56;16.10;99.90
17815;DHT22;9031;50.974;11.330;2024-03-29T15:26:23;15.90;99.90
17815;DHT22;9031;50.974;11.330;2024-03-29T15:28:48;15.60;99.90
17815;DHT22;9031;50.974;11.330;2024-03-29T15:31:42;15.60;99.90
17815;DHT22;9031;50.974;11.330;2024-03-29T15:34:09;15.30;99.90
17815;DHT22;9031;50.974;11.330;2024-03-29T15:36:35;15.40;99.90